Time;durP1;ratioP1;P1;durP2;ratioP2;P2;SDS_P1;SDS_P2;PMS_P1;PMS_P2;Temp;Humidity;BMP_temperature;BMP_pressure;BME280_temperature;BME280_humidity;BME280_pressure;Samples;Min_cycle;Max_cycle;Signal;HPM_P1;HPM_P2
2021/11/05 00:00:19;;;;;;;4.70;1.23;;;;;;;-146.90;100.00;60518.97;5032380;28;20074;-75
2021/11/05 00:02:44;;;;;;;4.45;1.30;;;;;;;-146.90;100.00;60518.97;5030185;28;20041;-74
2021/11/05 00:05:10;;;;;;;5.57;1.45;;;;;;;-146.90;100.00;60518.97;5029534;28;20026;-74
2021/11/05 00:07:36;;;;;;;5.63;1.27;;;;;;;-146.90;100.00;60518.97;5031502;28;20026;-77
2021/11/05 00:10:03;;;;;;;5.32;1.80;;;;;;;-146.90;100.00;60518.97;5045347;28;20127;-77
2021/11/05 00:12:28;;;;;;;5.05;1.50;;;;;;;-146.90;100.00;60518.97;5031526;28;20482;-75
2021/11/05 00:14:54;;;;;;;4.03;1.00;;;;;;;-146.90;100.00;60518.97;5034144;28;20023;-76
2021/11/05 00:17:19;;;;;;;8.88;1.40;;;;;;;-146.90;100.00;60518.97;5038229;28;20047;-77
2021/11/05 00:19:44;;;;;;;6.82;1.60;;;;;;;-146.90;100.00;60518.97;5030763;28;20056;-74
2021/11/05 00:22:10;;;;;;;3.00;1.05;;;;;;;-146.90;100.00;60518.97;5030827;28;20017;-75
2021/11/05 00:24:35;;;;;;;10.88;1.95;;;;;;;-146.90;100.00;60518.97;5031295;28;20061;-76
2021/11/05 00:27:00;;;;;;;8.57;1.70;;;;;;;-146.90;100.00;60518.97;5030579;28;20108;-76
2021/11/05 00:29:26;;;;;;;6.70;1.80;;;;;;;-146.90;100.00;60518.97;5031507;28;20107;-75
2021/11/05 00:31:51;;;;;;;7.40;1.30;;;;;;;-146.90;100.00;60518.97;5029235;28;20030;-75
2021/11/05 00:34:17;;;;;;;5.50;1.45;;;;;;;-146.90;100.00;60518.97;5031230;28;20397;-75
2021/11/05 00:36:46;;;;;;;4.45;1.40;;;;;;;-146.90;100.00;60518.97;5043443;28;20076;-75
2021/11/05 00:39:12;;;;;;;5.32;1.40;;;;;;;-146.90;100.00;60518.97;5030245;28;20561;-75
2021/11/05 00:41:37;;;;;;;4.03;1.60;;;;;;;-146.90;100.00;60518.97;5030699;28;20112;-74
2021/11/05 00:44:03;;;;;;;8.45;2.03;;;;;;;-146.90;100.00;60518.97;5035464;28;20017;-75
2021/11/05 00:46:28;;;;;;;6.50;1.85;;;;;;;-146.90;100.00;60518.97;5034342;28;20120;-74
2021/11/05 00:48:54;;;;;;;8.45;2.38;;;;;;;-146.90;100.00;60518.97;5028914;28;20017;-74
2021/11/05 00:51:19;;;;;;;8.18;2.50;;;;;;;-146.90;100.00;60518.97;5030116;28;20409;-75
2021/11/05 00:53:44;;;;;;;7.30;2.53;;;;;;;-146.90;100.00;60518.97;5033907;28;20489;-75
2021/11/05 00:56:10;;;;;;;7.13;1.98;;;;;;;-146.90;100.00;60518.97;5039148;28;20033;-76
2021/11/05 00:58:35;;;;;;;3.65;1.60;;;;;;;-146.90;100.00;60518.97;5028474;28;20036;-76
2021/11/05 01:01:00;;;;;;;6.35;1.70;;;;;;;-146.90;100.00;60518.97;5028893;28;20120;-74
2021/11/05 01:03:26;;;;;;;9.48;2.78;;;;;;;-146.90;100.00;60518.97;5028213;28;20048;-74
2021/11/05 01:05:51;;;;;;;8.80;2.08;;;;;;;-146.90;100.00;60518.97;5028946;28;20430;-76
2021/11/05 01:08:16;;;;;;;8.88;2.15;;;;;;;-146.90;100.00;60518.97;5029304;28;20025;-74
2021/11/05 01:10:42;;;;;;;8.60;2.17;;;;;;;-146.90;100.00;60518.97;5028509;28;20075;-74
2021/11/05 01:13:07;;;;;;;5.03;1.80;;;;;;;-146.90;100.00;60518.97;5029295;28;20484;-76
2021/11/05 01:15:33;;;;;;;6.13;1.70;;;;;;;-146.90;100.00;60518.97;5029489;28;20500;-76
2021/11/05 01:17:58;;;;;;;10.52;1.80;;;;;;;-146.90;100.00;60518.97;5027054;28;20029;-76
2021/11/05 01:20:24;;;;;;;12.80;1.50;;;;;;;-146.90;100.00;60518.97;5029258;28;20029;-76
2021/11/05 01:22:49;;;;;;;10.07;2.15;;;;;;;-146.90;100.00;60518.97;5028956;28;20021;-75
2021/11/05 01:25:15;;;;;;;8.98;1.88;;;;;;;-146.90;100.00;60518.97;5027503;28;20139;-75
2021/11/05 01:27:42;;;;;;;11.82;2.30;;;;;;;-146.90;100.00;60518.97;5028247;28;20033;-74
2021/11/05 01:30:08;;;;;;;12.18;2.17;;;;;;;-146.90;100.00;60518.97;5031893;28;20497;-75
2021/11/05 01:32:33;;;;;;;10.00;1.80;;;;;;;-146.90;100.00;60518.97;5028603;28;20026;-76
2021/11/05 01:34:59;;;;;;;7.15;1.92;;;;;;;-146.90;100.00;60518.97;5027777;28;20035;-76
2021/11/05 01:37:24;;;;;;;9.93;1.95;;;;;;;-146.90;100.00;60518.97;5028611;28;20025;-75
2021/11/05 01:39:49;;;;;;;7.03;1.65;;;;;;;-146.90;100.00;60518.97;5028869;28;20028;-76
2021/11/05 01:42:15;;;;;;;11.20;1.95;;;;;;;-146.90;100.00;60518.97;5029194;28;20022;-76
2021/11/05 01:44:41;;;;;;;9.82;1.77;;;;;;;-146.90;100.00;60518.97;5031997;28;20048;-76
2021/11/05 01:47:06;;;;;;;5.65;1.52;;;;;;;-146.90;100.00;60518.97;4991610;28;1046450;-75
2021/11/05 01:49:31;;;;;;;7.97;2.13;;;;;;;-146.90;100.00;60518.97;5030373;28;20029;-76
2021/11/05 01:51:57;;;;;;;8.07;1.60;;;;;;;-146.90;100.00;60518.97;5028955;28;20140;-75
2021/11/05 01:54:23;;;;;;;8.73;1.83;;;;;;;-146.90;100.00;60518.97;5028673;28;20029;-76
2021/11/05 01:56:48;;;;;;;7.15;1.83;;;;;;;-146.90;100.00;60518.97;5028823;28;20041;-76
2021/11/05 01:59:28;;;;;;;9.95;1.55;;;;;;;-146.90;100.00;60518.97;5026977;28;20036;-75
2021/11/05 02:01:55;;;;;;;5.57;1.58;;;;;;;-146.90;100.00;60518.97;5028901;28;20029;-73
2021/11/05 02:04:20;;;;;;;7.47;1.45;;;;;;;-146.90;100.00;60518.97;5028228;28;20013;-75
2021/11/05 02:06:48;;;;;;;4.63;1.33;;;;;;;-146.90;100.00;60518.97;5029418;28;20026;-76
2021/11/05 02:09:15;;;;;;;12.77;2.03;;;;;;;-146.90;100.00;60518.97;5030888;28;20035;-77
2021/11/05 02:11:42;;;;;;;8.40;1.77;;;;;;;-146.90;100.00;60518.97;5029711;28;20029;-76
2021/11/05 02:14:12;;;;;;;5.82;1.77;;;;;;;-146.90;100.00;60518.97;5028640;28;20565;-75
2021/11/05 02:16:37;;;;;;;6.70;2.13;;;;;;;-146.90;100.00;60518.97;5029702;28;20021;-76
2021/11/05 02:19:03;;;;;;;6.93;1.67;;;;;;;-146.90;100.00;60518.97;5028281;28;20466;-75
2021/11/05 02:21:49;;;;;;;10.35;2.70;;;;;;;-146.90;100.00;60518.97;5042596;28;20033;-75
2021/11/05 02:24:15;;;;;;;7.50;2.00;;;;;;;-146.90;100.00;60518.97;5027606;28;20132;-75
2021/11/05 02:26:42;;;;;;;4.85;1.27;;;;;;;-146.90;100.00;60518.97;5034383;28;20075;-75
2021/11/05 02:29:07;;;;;;;6.00;1.48;;;;;;;-146.90;100.00;60518.97;5028161;28;20386;-75
2021/11/05 02:31:33;;;;;;;5.28;1.27;;;;;;;-146.90;100.00;60518.97;5027800;28;20466;-76
2021/11/05 02:33:59;;;;;;;7.65;1.48;;;;;;;-146.90;100.00;60518.97;5027499;28;20037;-75
2021/11/05 02:36:24;;;;;;;9.23;1.60;;;;;;;-146.90;100.00;60518.97;5027813;28;20021;-75
2021/11/05 02:38:50;;;;;;;7.63;1.70;;;;;;;-146.90;100.00;60518.97;5026619;28;20040;-75
2021/11/05 02:41:15;;;;;;;7.75;1.83;;;;;;;-146.90;100.00;60518.97;5026659;28;20021;-76
2021/11/05 02:43:41;;;;;;;7.57;1.50;;;;;;;-146.90;100.00;60518.97;5028131;28;20032;-76
2021/11/05 02:46:06;;;;;;;5.57;1.30;;;;;;;-146.90;100.00;60518.97;5026045;28;20026;-74
2021/11/05 02:48:33;;;;;;;7.03;1.50;;;;;;;-146.90;100.00;60518.97;5028826;28;20045;-75
2021/11/05 02:50:58;;;;;;;6.10;1.48;;;;;;;-146.90;100.00;60518.97;5028295;28;20029;-75
2021/11/05 02:53:24;;;;;;;6.93;1.60;;;;;;;-146.90;100.00;60518.97;5029516;28;20030;-75
2021/11/05 02:55:49;;;;;;;10.65;2.20;;;;;;;-146.90;100.00;60518.97;5031705;28;20090;-75
2021/11/05 02:58:15;;;;;;;5.43;1.75;;;;;;;-146.90;100.00;60518.97;5028903;28;20029;-75
2021/11/05 03:00:45;;;;;;;5.47;1.35;;;;;;;-146.90;100.00;60518.97;5029562;28;20409;-76
2021/11/05 03:03:11;;;;;;;9.48;1.60;;;;;;;-146.90;100.00;60518.97;5028522;28;20023;-74
2021/11/05 03:05:36;;;;;;;11.90;2.35;;;;;;;-146.90;100.00;60518.97;5029247;28;20028;-75
2021/11/05 03:08:01;;;;;;;5.13;1.60;;;;;;;-146.90;100.00;60518.97;5027310;28;20104;-75
2021/11/05 03:10:27;;;;;;;12.98;1.83;;;;;;;-146.90;100.00;60518.97;5027625;28;20025;-76
2021/11/05 03:12:52;;;;;;;6.85;1.35;;;;;;;-146.90;100.00;60518.97;5028355;28;20022;-76
2021/11/05 03:15:17;;;;;;;8.95;1.58;;;;;;;-146.90;100.00;60518.97;5029275;28;20068;-75
2021/11/05 03:17:43;;;;;;;6.40;1.95;;;;;;;-146.90;100.00;60518.97;5028408;28;20502;-74
2021/11/05 03:20:10;;;;;;;7.95;1.40;;;;;;;-146.90;100.00;60518.97;5027190;28;20029;-76
2021/11/05 03:22:37;;;;;;;4.18;1.52;;;;;;;-146.90;100.00;60518.97;5027130;28;20177;-76
2021/11/05 03:25:02;;;;;;;6.50;1.58;;;;;;;-146.90;100.00;60518.97;5025166;28;20481;-76
2021/11/05 03:27:28;;;;;;;6.10;1.38;;;;;;;-146.90;100.00;60518.97;5036980;28;20032;-76
2021/11/05 03:29:53;;;;;;;9.15;1.73;;;;;;;-146.90;100.00;60518.97;5033419;28;20087;-76
2021/11/05 03:32:19;;;;;;;8.43;1.42;;;;;;;-146.90;100.00;60518.97;5028758;28;20112;-74
2021/11/05 03:34:44;;;;;;;7.10;1.60;;;;;;;-146.90;100.00;60518.97;5028691;28;20556;-75
2021/11/05 03:37:10;;;;;;;7.97;1.50;;;;;;;-146.90;100.00;60518.97;5028749;28;20032;-74
2021/11/05 03:39:38;;;;;;;11.27;2.08;;;;;;;-146.90;100.00;60518.97;5026388;28;20112;-76
2021/11/05 03:42:04;;;;;;;12.90;1.83;;;;;;;-146.90;100.00;60518.97;5029342;28;20128;-75
2021/11/05 03:44:30;;;;;;;11.02;2.00;;;;;;;-146.90;100.00;60518.97;5040899;28;20108;-74
2021/11/05 03:46:55;;;;;;;10.23;1.75;;;;;;;-146.90;100.00;60518.97;5027770;28;20448;-74
2021/11/05 03:49:20;;;;;;;10.98;1.95;;;;;;;-146.90;100.00;60518.97;5027717;28;20155;-75
2021/11/05 03:51:46;;;;;;;5.13;1.50;;;;;;;-146.90;100.00;60518.97;5028565;28;20041;-75
2021/11/05 03:54:11;;;;;;;9.85;1.52;;;;;;;-146.90;100.00;60518.97;5034159;28;20127;-74
2021/11/05 03:56:36;;;;;;;7.50;2.03;;;;;;;-146.90;100.00;60518.97;5028039;28;20025;-75
2021/11/05 03:59:02;;;;;;;10.57;1.73;;;;;;;-146.90;100.00;60518.97;5030295;28;20037;-75
2021/11/05 04:01:27;;;;;;;5.35;1.27;;;;;;;-146.90;100.00;60518.97;5030410;28;20075;-75
2021/11/05 04:03:53;;;;;;;6.75;1.65;;;;;;;-146.90;100.00;60518.97;5031583;28;20025;-75
2021/11/05 04:06:20;;;;;;;7.53;1.60;;;;;;;-146.90;100.00;60518.97;5030258;28;20453;-76
2021/11/05 04:08:46;;;;;;;6.03;1.40;;;;;;;-146.90;100.00;60518.97;5030151;28;20059;-75
2021/11/05 04:11:12;;;;;;;10.15;2.03;;;;;;;-146.90;100.00;60518.97;5049474;28;20021;-75
2021/11/05 04:13:37;;;;;;;7.68;1.48;;;;;;;-146.90;100.00;60518.97;5042710;28;20029;-74
2021/11/05 04:16:02;;;;;;;3.03;1.13;;;;;;;-146.90;100.00;60518.97;5030337;28;20084;-75
2021/11/05 04:18:28;;;;;;;7.68;2.10;;;;;;;-146.90;100.00;60518.97;5031101;28;20029;-75
2021/11/05 04:20:53;;;;;;;8.60;1.52;;;;;;;-146.90;100.00;60518.97;5029682;28;20034;-74
2021/11/05 04:23:19;;;;;;;7.68;1.67;;;;;;;-146.90;100.00;60518.97;5030270;28;20035;-74
2021/11/05 04:25:45;;;;;;;9.85;1.50;;;;;;;-146.90;100.00;60518.97;5029845;28;20040;-74
2021/11/05 04:28:11;;;;;;;9.10;1.70;;;;;;;-146.90;100.00;60518.97;5030485;28;20033;-75
2021/11/05 04:30:37;;;;;;;11.82;1.88;;;;;;;-146.90;100.00;60518.97;5031402;28;20371;-75
2021/11/05 04:33:03;;;;;;;4.57;1.45;;;;;;;-146.90;100.00;60518.97;5029375;28;20109;-74
2021/11/05 04:35:29;;;;;;;8.30;1.77;;;;;;;-146.90;100.00;60518.97;5031566;28;20018;-74
2021/11/05 04:37:54;;;;;;;8.07;1.65;;;;;;;-146.90;100.00;60518.97;5029025;28;20489;-75
2021/11/05 04:40:19;;;;;;;7.13;1.80;;;;;;;-146.90;100.00;60518.97;5031085;28;20025;-75
2021/11/05 04:42:45;;;;;;;6.00;1.67;;;;;;;-146.90;100.00;60518.97;5045410;28;20018;-76
2021/11/05 04:45:10;;;;;;;5.50;1.33;;;;;;;-146.90;100.00;60518.97;5031010;28;20557;-75
2021/11/05 04:47:36;;;;;;;6.32;1.75;;;;;;;-146.90;100.00;60518.97;5029538;28;20029;-75
2021/11/05 04:50:01;;;;;;;5.65;1.67;;;;;;;-146.90;100.00;60518.97;5035292;28;20025;-76
2021/11/05 04:52:27;;;;;;;3.17;1.25;;;;;;;-146.90;100.00;60518.97;5034140;28;20022;-76
2021/11/05 04:54:52;;;;;;;4.75;1.45;;;;;;;-146.90;100.00;60518.97;5029340;28;20485;-76
2021/11/05 04:57:18;;;;;;;5.47;1.35;;;;;;;-146.90;100.00;60518.97;5030431;28;20041;-76
2021/11/05 04:59:44;;;;;;;3.75;1.50;;;;;;;-146.90;100.00;60518.97;5032836;28;20425;-74
2021/11/05 05:02:10;;;;;;;7.72;1.52;;;;;;;-146.90;100.00;60518.97;5029963;28;20037;-75
2021/11/05 05:04:36;;;;;;;7.57;1.88;;;;;;;-146.90;100.00;60518.97;5030835;28;20386;-74
2021/11/05 05:07:01;;;;;;;5.50;1.33;;;;;;;-146.90;100.00;60518.97;5029684;28;20026;-76
2021/11/05 05:09:26;;;;;;;12.05;1.85;;;;;;;-146.90;100.00;60518.97;5029642;28;20036;-76
2021/11/05 05:11:52;;;;;;;5.10;1.52;;;;;;;-146.90;100.00;60518.97;5029053;28;20021;-75
2021/11/05 05:14:17;;;;;;;4.68;1.15;;;;;;;-146.90;100.00;60518.97;5029594;28;20078;-75
2021/11/05 05:16:43;;;;;;;6.78;1.50;;;;;;;-146.90;100.00;60518.97;5030289;28;20379;-75
2021/11/05 05:19:08;;;;;;;6.68;1.40;;;;;;;-146.90;100.00;60518.97;5036415;28;20482;-75
2021/11/05 05:21:33;;;;;;;6.78;1.98;;;;;;;-146.90;100.00;60518.97;5029470;28;20551;-75
2021/11/05 05:23:59;;;;;;;7.22;1.95;;;;;;;-146.90;100.00;60518.97;5035283;28;20029;-75
2021/11/05 05:26:24;;;;;;;5.88;1.90;;;;;;;-146.90;100.00;60518.97;5033526;28;20022;-75
2021/11/05 05:28:49;;;;;;;5.72;1.85;;;;;;;-146.90;100.00;60518.97;5037250;28;20025;-74
2021/11/05 05:31:15;;;;;;;7.47;1.80;;;;;;;-146.90;100.00;60518.97;5027369;28;20026;-75
2021/11/05 05:33:42;;;;;;;10.27;2.03;;;;;;;-146.90;100.00;60518.97;5028865;28;20114;-74
2021/11/05 05:36:08;;;;;;;4.53;1.60;;;;;;;-146.90;100.00;60518.97;5028602;28;20567;-75
2021/11/05 05:38:34;;;;;;;8.15;2.13;;;;;;;-146.90;100.00;60518.97;5029310;28;20036;-75
2021/11/05 05:40:59;;;;;;;7.13;1.80;;;;;;;-146.90;100.00;60518.97;5029885;28;20029;-76
2021/11/05 05:43:25;;;;;;;13.05;2.45;;;;;;;-146.90;100.00;60518.97;5029798;28;20029;-76
2021/11/05 05:45:51;;;;;;;13.80;2.45;;;;;;;-146.90;100.00;60518.97;5030554;28;20100;-75
2021/11/05 05:48:16;;;;;;;7.72;2.50;;;;;;;-146.90;100.00;60518.97;5029555;28;20397;-75
2021/11/05 05:50:41;;;;;;;6.38;2.25;;;;;;;-146.90;100.00;60518.97;5028248;28;20373;-76
2021/11/05 05:53:07;;;;;;;6.50;2.58;;;;;;;-146.90;100.00;60518.97;5028761;28;20022;-76
2021/11/05 05:55:32;;;;;;;6.45;2.03;;;;;;;-146.90;100.00;60518.97;5029701;28;20036;-74
2021/11/05 05:57:57;;;;;;;6.88;2.58;;;;;;;-146.90;100.00;60518.97;5028604;28;20084;-74
2021/11/05 06:00:23;;;;;;;7.13;2.35;;;;;;;-146.90;100.00;60518.97;5031016;28;20040;-75
2021/11/05 06:02:48;;;;;;;9.27;2.80;;;;;;;-146.90;100.00;60518.97;5028540;28;20021;-75
2021/11/05 06:05:14;;;;;;;5.80;2.10;;;;;;;-146.90;100.00;60518.97;5027981;28;20045;-76
2021/11/05 06:07:39;;;;;;;9.57;2.42;;;;;;;-146.90;100.00;60518.97;5028688;28;20039;-76
2021/11/05 06:10:05;;;;;;;7.97;2.33;;;;;;;-146.90;100.00;60518.97;5027677;28;20457;-75
2021/11/05 06:12:32;;;;;;;7.18;2.50;;;;;;;-146.90;100.00;60518.97;5044361;28;20021;-75
2021/11/05 06:14:58;;;;;;;7.93;2.78;;;;;;;-146.90;100.00;60518.97;5028435;28;20014;-75
2021/11/05 06:17:23;;;;;;;11.90;3.10;;;;;;;-146.90;100.00;60518.97;5031714;28;20029;-75
2021/11/05 06:19:48;;;;;;;8.93;2.80;;;;;;;-146.90;100.00;60518.97;5029413;28;20032;-75
2021/11/05 06:22:14;;;;;;;5.68;2.45;;;;;;;-146.90;100.00;60518.97;5027603;28;20112;-76
2021/11/05 06:24:39;;;;;;;5.57;1.92;;;;;;;-146.90;100.00;60518.97;5029101;28;20033;-76
2021/11/05 06:27:04;;;;;;;6.85;2.25;;;;;;;-146.90;100.00;60518.97;5033353;28;20040;-76
2021/11/05 06:29:30;;;;;;;7.00;2.20;;;;;;;-146.90;100.00;60518.97;5027421;28;20378;-74
2021/11/05 06:31:55;;;;;;;6.85;2.75;;;;;;;-146.90;100.00;60518.97;5026762;28;20097;-74
2021/11/05 06:34:20;;;;;;;9.85;3.45;;;;;;;-146.90;100.00;60518.97;5040817;28;20110;-77
2021/11/05 06:36:46;;;;;;;14.15;3.72;;;;;;;-146.90;100.00;60518.97;5032629;28;20118;-74
2021/11/05 06:39:11;;;;;;;9.13;3.00;;;;;;;-146.90;100.00;60518.97;5025893;28;20033;-75
2021/11/05 06:41:37;;;;;;;7.80;2.97;;;;;;;-146.90;100.00;60518.97;5026579;28;20028;-76
2021/11/05 06:44:02;;;;;;;11.70;3.95;;;;;;;-146.90;100.00;60518.97;5028079;28;20067;-75
2021/11/05 06:46:28;;;;;;;11.05;3.97;;;;;;;-146.90;100.00;60518.97;5025816;28;20044;-76
2021/11/05 06:48:53;;;;;;;7.28;3.00;;;;;;;-146.90;100.00;60518.97;5025957;28;20026;-75
2021/11/05 06:51:19;;;;;;;6.35;3.00;;;;;;;-146.90;100.00;60518.97;5026602;28;20045;-76
2021/11/05 06:53:44;;;;;;;7.72;2.80;;;;;;;-146.90;100.00;60518.97;5027959;28;20439;-76
2021/11/05 06:56:10;;;;;;;8.45;3.30;;;;;;;-146.90;100.00;60518.97;5027661;28;20088;-75
2021/11/05 06:58:36;;;;;;;7.75;2.60;;;;;;;-146.90;100.00;60518.97;5026878;28;20061;-76
2021/11/05 07:01:05;;;;;;;10.27;3.45;;;;;;;-146.90;100.00;60518.97;5026942;28;20036;-76
2021/11/05 07:03:31;;;;;;;8.30;3.33;;;;;;;-146.90;100.00;60518.97;5024156;28;20025;-76
2021/11/05 07:05:58;;;;;;;11.30;2.90;;;;;;;-146.90;100.00;60518.97;5026891;28;20099;-77
2021/11/05 07:08:24;;;;;;;7.30;2.50;;;;;;;-146.90;100.00;60518.97;5027444;28;20452;-76
2021/11/05 07:10:49;;;;;;;10.52;3.20;;;;;;;-146.90;100.00;60518.97;5030145;28;20370;-75
2021/11/05 07:13:15;;;;;;;9.73;2.80;;;;;;;-146.90;100.00;60518.97;5029819;28;20028;-76
2021/11/05 07:15:40;;;;;;;10.13;3.30;;;;;;;-146.90;100.00;60518.97;5032166;28;20552;-75
2021/11/05 07:18:05;;;;;;;10.80;3.10;;;;;;;-146.90;100.00;60518.97;5023864;28;20331;-76
2021/11/05 07:20:33;;;;;;;12.18;3.25;;;;;;;-146.90;100.00;60518.97;5033524;28;20379;-77
2021/11/05 07:22:59;;;;;;;6.75;2.47;;;;;;;-146.90;100.00;60518.97;5042110;28;20021;-77
2021/11/05 07:25:24;;;;;;;10.52;3.13;;;;;;;-146.90;100.00;60518.97;5031634;28;20029;-77
2021/11/05 07:27:50;;;;;;;7.57;2.97;;;;;;;-146.90;100.00;60518.97;5027451;28;20508;-75
2021/11/05 07:30:15;;;;;;;12.20;2.90;;;;;;;-146.90;100.00;60518.97;5040130;28;20021;-77
2021/11/05 07:32:44;;;;;;;11.05;2.72;;;;;;;-146.90;100.00;60518.97;5046051;28;20135;-77
2021/11/05 07:35:10;;;;;;;11.63;3.30;;;;;;;-146.90;100.00;60518.97;5031947;28;20034;-75
2021/11/05 07:37:35;;;;;;;15.20;3.40;;;;;;;-146.90;100.00;60518.97;5031345;28;20036;-75
2021/11/05 07:40:01;;;;;;;15.60;3.50;;;;;;;-146.90;100.00;60518.97;5030891;28;20470;-75
2021/11/05 07:42:27;;;;;;;16.10;3.40;;;;;;;-146.90;100.00;60518.97;5029968;28;20028;-76
2021/11/05 07:44:52;;;;;;;10.25;3.10;;;;;;;-146.90;100.00;60518.97;5030560;28;20021;-74
2021/11/05 07:47:22;;;;;;;11.27;2.97;;;;;;;-146.90;100.00;60518.97;5030712;28;20507;-76
2021/11/05 07:49:50;;;;;;;10.45;3.80;;;;;;;-146.90;100.00;60518.97;5030802;28;20017;-74
2021/11/05 07:52:18;;;;;;;14.25;3.85;;;;;;;-146.90;100.00;60518.97;5031275;28;20035;-75
2021/11/05 07:54:43;;;;;;;10.05;3.45;;;;;;;-146.90;100.00;60518.97;5031609;28;20071;-75
2021/11/05 07:57:08;;;;;;;14.70;3.30;;;;;;;-146.90;100.00;60518.97;5032283;28;20104;-76
2021/11/05 07:59:34;;;;;;;10.15;2.95;;;;;;;-146.90;100.00;60518.97;5032022;28;20588;-74
2021/11/05 08:01:59;;;;;;;12.02;2.90;;;;;;;-146.90;100.00;60518.97;5030180;28;20636;-74
2021/11/05 08:04:24;;;;;;;11.05;2.92;;;;;;;-146.90;100.00;60518.97;5030718;28;20572;-73
2021/11/05 08:06:50;;;;;;;12.05;2.90;;;;;;;-146.90;100.00;60518.97;5029991;28;20100;-75
2021/11/05 08:09:15;;;;;;;16.35;3.40;;;;;;;-146.90;100.00;60518.97;5029336;28;20503;-75
2021/11/05 08:11:41;;;;;;;8.68;2.40;;;;;;;-146.90;100.00;60518.97;5028942;28;20035;-74
2021/11/05 08:14:06;;;;;;;9.85;2.70;;;;;;;-146.90;100.00;60518.97;5030657;28;20022;-76
2021/11/05 08:16:31;;;;;;;10.60;2.42;;;;;;;-146.90;100.00;60518.97;5030276;28;20028;-74
2021/11/05 08:18:57;;;;;;;11.85;3.05;;;;;;;-146.90;100.00;60518.97;5030933;28;20486;-75
2021/11/05 08:21:22;;;;;;;9.88;2.97;;;;;;;-146.90;100.00;60518.97;5031872;28;20500;-75
2021/11/05 08:23:48;;;;;;;16.58;3.97;;;;;;;-146.90;100.00;60518.97;5030240;28;20026;-78
2021/11/05 08:26:14;;;;;;;8.73;2.35;;;;;;;-146.90;100.00;60518.97;5030329;28;20020;-79
2021/11/05 08:28:41;;;;;;;17.38;2.55;;;;;;;-146.90;100.00;60518.97;5030327;28;20036;-79
2021/11/05 08:31:10;;;;;;;9.43;2.42;;;;;;;-146.90;100.00;60518.97;5028377;28;20028;-80
2021/11/05 08:33:39;;;;;;;13.93;2.72;;;;;;;-146.90;100.00;60518.97;5030073;28;20022;-77
2021/11/05 08:36:05;;;;;;;11.38;2.45;;;;;;;-146.90;100.00;60518.97;5029489;28;20451;-75
2021/11/05 08:38:33;;;;;;;8.02;2.15;;;;;;;-146.90;100.00;60518.97;5031309;28;20037;-76
2021/11/05 08:40:58;;;;;;;6.90;2.00;;;;;;;-146.90;100.00;60518.97;5030017;28;20474;-77
2021/11/05 08:43:26;;;;;;;12.85;2.42;;;;;;;-146.90;100.00;60518.97;5029954;28;20111;-77
2021/11/05 08:45:51;;;;;;;9.57;2.00;;;;;;;-146.90;100.00;60518.97;5029232;28;20063;-76
2021/11/05 08:48:18;;;;;;;10.23;2.83;;;;;;;-146.90;100.00;60518.97;5029302;28;20325;-79
2021/11/05 08:50:44;;;;;;;8.80;3.22;;;;;;;-146.90;100.00;60518.97;5030298;28;20021;-79
2021/11/05 08:53:09;;;;;;;13.88;3.83;;;;;;;-146.90;100.00;60518.97;5030640;28;20084;-75
2021/11/05 08:55:37;;;;;;;13.68;4.05;;;;;;;-146.90;100.00;60518.97;5029357;28;20025;-78
2021/11/05 08:58:03;;;;;;;10.95;2.95;;;;;;;-146.90;100.00;60518.97;5027484;28;20107;-80
2021/11/05 09:00:32;;;;;;;10.80;4.13;;;;;;;-146.90;100.00;60518.97;5027717;28;20030;-78
2021/11/05 09:02:58;;;;;;;11.18;2.55;;;;;;;-146.90;100.00;60518.97;5028112;28;20033;-76
2021/11/05 09:05:23;;;;;;;8.68;2.70;;;;;;;-146.90;100.00;60518.97;5030528;28;20423;-77
2021/11/05 09:07:49;;;;;;;8.57;2.35;;;;;;;-146.90;100.00;60518.97;5028310;28;20033;-77
2021/11/05 09:10:14;;;;;;;5.45;1.38;;;;;;;-146.90;100.00;60518.97;5029038;28;20025;-79
2021/11/05 09:12:40;;;;;;;5.45;1.25;;;;;;;-146.90;100.00;60518.97;5029849;28;20382;-79
2021/11/05 09:15:07;;;;;;;4.22;1.75;;;;;;;-146.90;100.00;60518.97;5029427;28;20056;-79
2021/11/05 09:17:34;;;;;;;3.65;1.40;;;;;;;-146.90;100.00;60518.97;5029467;28;20056;-77
2021/11/05 09:20:00;;;;;;;4.07;0.98;;;;;;;-146.90;100.00;60518.97;5029729;28;20056;-77
2021/11/05 09:22:25;;;;;;;4.50;1.25;;;;;;;-146.90;100.00;60518.97;5030081;28;20413;-79
2021/11/05 09:24:51;;;;;;;6.55;1.40;;;;;;;-146.90;100.00;60518.97;5029414;28;20025;-79
2021/11/05 09:27:17;;;;;;;6.20;2.03;;;;;;;-146.90;100.00;60518.97;5043623;28;20036;-78
2021/11/05 09:29:42;;;;;;;5.97;1.65;;;;;;;-146.90;100.00;60518.97;5028357;28;20102;-77
2021/11/05 09:32:08;;;;;;;4.40;1.50;;;;;;;-146.90;100.00;60518.97;5027611;28;20044;-76
2021/11/05 09:34:33;;;;;;;5.18;1.60;;;;;;;-146.90;100.00;60518.97;5040142;28;20067;-76
2021/11/05 09:37:00;;;;;;;5.63;1.27;;;;;;;-146.90;100.00;60518.97;5049171;28;20033;-79
2021/11/05 09:39:25;;;;;;;11.02;2.10;;;;;;;-146.90;100.00;60518.97;5038157;28;20034;-77
2021/11/05 09:41:51;;;;;;;12.00;2.20;;;;;;;-146.90;100.00;60518.97;5044993;28;20166;-80
2021/11/05 09:44:16;;;;;;;11.95;1.70;;;;;;;-146.90;100.00;60518.97;5020911;28;20068;-80
2021/11/05 09:46:42;;;;;;;6.15;1.33;;;;;;;-146.90;100.00;60518.97;5028968;28;20029;-78
2021/11/05 09:49:08;;;;;;;6.78;1.13;;;;;;;-146.90;100.00;60518.97;5028874;28;20033;-77
2021/11/05 09:51:33;;;;;;;8.73;1.92;;;;;;;-146.90;100.00;60518.97;5027649;28;20039;-80
2021/11/05 09:54:01;;;;;;;5.85;1.60;;;;;;;-146.90;100.00;60518.97;5037391;28;20029;-76
2021/11/05 09:56:27;;;;;;;5.82;1.27;;;;;;;-146.90;100.00;60518.97;5020813;28;20021;-75
2021/11/05 09:58:52;;;;;;;6.18;1.40;;;;;;;-146.90;100.00;60518.97;5020144;28;20048;-76
2021/11/05 10:01:18;;;;;;;5.90;1.52;;;;;;;-146.90;100.00;60518.97;5016613;28;20018;-76
2021/11/05 10:03:43;;;;;;;6.07;1.88;;;;;;;-146.90;100.00;60518.97;5017067;28;20030;-76
2021/11/05 10:06:12;;;;;;;10.52;2.65;;;;;;;-146.90;100.00;60518.97;5008881;28;20521;-75
2021/11/05 10:08:37;;;;;;;7.55;1.90;;;;;;;-146.90;100.00;60518.97;5028758;28;20025;-76
2021/11/05 10:11:22;;;;;;;6.55;1.50;;;;;;;-146.90;100.00;60518.97;5032486;28;20072;-76
2021/11/05 10:13:48;;;;;;;4.68;1.40;;;;;;;-146.90;100.00;60518.97;5022196;28;20037;-75
2021/11/05 10:16:14;;;;;;;5.20;1.33;;;;;;;-146.90;100.00;60518.97;5019106;28;20109;-74
2021/11/05 10:19:04;;;;;;;4.75;1.27;;;;;;;-146.90;100.00;60518.97;5019502;28;20550;-75
2021/11/05 10:21:41;;;;;;;6.03;1.60;;;;;;;-146.90;100.00;60518.97;5020869;28;20377;-75
2021/11/05 10:24:15;;;;;;;7.32;1.40;;;;;;;-146.90;100.00;60518.97;5019290;28;20438;-75
2021/11/05 10:26:41;;;;;;;14.88;2.38;;;;;;;-146.90;100.00;60518.97;5041744;28;20032;-76
2021/11/05 10:29:08;;;;;;;7.95;1.65;;;;;;;-146.90;100.00;60518.97;5020370;28;20409;-77
2021/11/05 10:31:35;;;;;;;8.27;2.10;;;;;;;-146.90;100.00;60518.97;5025247;28;20441;-75
2021/11/05 10:34:01;;;;;;;14.40;6.05;;;;;;;-146.90;100.00;60518.97;5018918;28;20071;-76
2021/11/05 10:36:27;;;;;;;12.40;2.00;;;;;;;-146.90;100.00;60518.97;5026365;28;20056;-78
2021/11/05 10:39:04;;;;;;;9.52;1.75;;;;;;;-146.90;100.00;60518.97;5027410;28;20032;-76
2021/11/05 10:41:31;;;;;;;8.18;2.10;;;;;;;-146.90;100.00;60518.97;5020117;28;20138;-75
2021/11/05 10:44:13;;;;;;;6.20;1.55;;;;;;;-146.90;100.00;60518.97;5017058;28;20123;-78
2021/11/05 10:46:44;;;;;;;3.13;1.77;;;;;;;-146.90;100.00;60518.97;5029808;28;20033;-76
2021/11/05 10:49:15;;;;;;;10.35;1.52;;;;;;;-146.90;100.00;60518.97;5019602;28;20040;-81
2021/11/05 10:51:41;;;;;;;11.00;2.10;;;;;;;-146.90;100.00;60518.97;5024299;28;20021;-76
2021/11/05 10:54:06;;;;;;;5.80;1.48;;;;;;;-146.90;100.00;60518.97;5033773;28;20028;-76
2021/11/05 10:56:32;;;;;;;5.15;1.55;;;;;;;-146.90;100.00;60518.97;5029522;28;20096;-76
2021/11/05 10:59:01;;;;;;;5.20;2.00;;;;;;;-146.90;100.00;60518.97;5025632;28;20104;-76
2021/11/05 11:01:34;;;;;;;8.50;2.05;;;;;;;-146.90;100.00;60518.97;5020154;28;20061;-76